Data for 11/29/2007

Time Sea-Level Adjusted Pressure Absolute Pressure Temperature Relative Humidity Dew Point   
(mb) (inHg) (mb) (inHg) (C) (F) (%) (C) (F)
00:05 1017 30.03 846 24.98 -6.3 20.6 55 -13.9 6.9
00:10 1017 30.03 846 24.98 -6 21.2 56 -13.5 7.7
00:15 1017 30.03 846 24.98 -5.8 21.6 55 -13.5 7.8
00:20 1017 30.03 846 24.98 -5.7 21.7 54 -13.6 7.4
00:25 1017 30.03 846 24.98 -5.9 21.4 61 -12.2 10.1
00:30 1017 30.03 846 24.98 -6.3 20.6 57 -13.6 7.6
00:35 1017 30.03 846 24.98 -6.2 20.9 56 -13.5 7.6
00:40 1017 30.03 846 24.98 -5.8 21.5 59 -12.7 9.1
00:45 1017 30.03 846 24.98 -6.2 20.8 55 -13.9 7.1
00:50 1017 30.03 846 24.98 -6.1 21 54 -14 6.8
00:55 1017 30.03 846 24.98 -5.9 21.4 52 -14.4 6.2
01:00 1017 30.03 846 24.98 -5.6 22 52 -14 6.9
01:05 1017 30.03 846 24.98 -5.4 22.2 55 -13.2 8.3
01:10 1017 30.03 846 24.98 -5.1 22.7 55 -12.8 8.9
01:15 1016 30 846 24.98 -4.5 23.9 53 -12.6 9.3
01:20 1016 30 846 24.98 -4.6 23.8 54 -12.5 9.6
01:25 1016 30 846 24.98 -5.1 22.9 57 -12.3 9.8
01:30 1016 30 846 24.98 -5.2 22.7 58 -12.2 10
01:35 1016 30 846 24.98 -5.2 22.6 57 -12.6 9.4
01:40 1016 30 846 24.98 -5.4 22.3 58 -12.5 9.5
01:45 1016 30 846 24.98 -5.4 22.4 59 -12.1 10.3
01:50 1016 30 846 24.98 -5.3 22.4 62 -11.6 11.1
01:55 1016 30 846 24.98 -5.2 22.6 63 -11.2 11.8
02:00 1016 30 846 24.98 -5.1 22.7 68 -10.1 13.8
02:05 1016 30 846 24.98 -4.8 23.3 70 -9.6 14.8
02:10 1016 30 846 24.98 -4.6 23.7 71 -9.1 15.6
02:15 1016 30 846 24.98 -4.7 23.6 73 -8.8 16.1
02:20 1016 30 846 24.98 -4.7 23.6 76 -8.3 17
02:25 1016 30 846 24.98 -4.7 23.6 79 -7.7 18.1
02:30 1017 30.03 846 24.98 -4.7 23.5 81 -7.5 18.5
02:35 1017 30.03 846 24.98 -5.1 22.8 85 -7.2 19
02:40 1016 30 846 24.98 -5.4 22.2 88 -7.2 19
02:45 1016 30 846 24.98 -5.6 22 87 -7.3 18.8
02:50 1016 30 846 24.98 -5.8 21.6 90 -7.2 19
02:55 1016 30 846 24.98 -6 21.3 92 -7.1 19.2
03:00 1016 30 846 24.98 -6 21.2 92 -7.1 19.2
03:05 1016 30 845 24.95 -6.1 21 93 -7.1 19.3
03:10 1016 30 845 24.95 -6.1 21.1 93 -7 19.4
03:15 1016 30 845 24.95 -6.1 21.1 93 -7 19.4
03:20 1016 30 845 24.95 -6.1 21 93 -7 19.4
03:25 1016 30 845 24.95 -6.1 20.9 94 -7 19.4
03:30 1016 30 845 24.95 -6.2 20.9 94 -7 19.5
03:35 1016 30 845 24.95 -6.1 21 94 -7 19.5
03:40 1016 30 845 24.95 -6.1 21.1 94 -6.9 19.5
03:45 1016 30 845 24.95 -6.1 21 94 -7 19.4
03:50 1015 29.97 845 24.95 -6.2 20.9 94 -7 19.5
03:55 1015 29.97 845 24.95 -6.2 20.8 94 -7 19.4
04:00 1015 29.97 845 24.95 -6.2 20.8 95 -6.9 19.5
04:05 1015 29.97 844 24.92 -6.2 20.8 95 -6.9 19.6
04:10 1015 29.97 844 24.92 -6.2 20.9 95 -6.9 19.5
04:15 1015 29.97 844 24.92 -6.2 20.8 95 -6.9 19.5
04:20 1015 29.97 844 24.92 -6.2 20.9 95 -6.9 19.6
04:25 1015 29.97 844 24.92 -6.2 20.9 95 -6.9 19.7
04:30 1015 29.97 844 24.92 -6.1 21 95 -6.8 19.7
04:35 1015 29.97 844 24.92 -6.1 21.1 95 -6.8 19.8
04:40 1015 29.97 844 24.92 -6 21.1 95 -6.8 19.8
04:45 1015 29.97 844 24.92 -6 21.1 95 -6.8 19.8
04:50 1015 29.97 844 24.92 -6 21.2 95 -6.8 19.8
04:55 1015 29.97 844 24.92 -6 21.2 95 -6.7 19.9
05:00 1015 29.97 844 24.92 -6 21.2 95 -6.7 19.9
05:05 1015 29.97 844 24.92 -6 21.3 95 -6.7 20
05:10 1015 29.97 844 24.92 -5.9 21.3 95 -6.7 20
05:15 1015 29.97 844 24.92 -5.9 21.3 95 -6.7 20
05:20 1015 29.97 844 24.92 -5.9 21.3 95 -6.6 20
05:25 1015 29.97 844 24.92 -5.9 21.4 95 -6.6 20
05:30 1015 29.97 844 24.92 -6 21.3 95 -6.6 20
05:35 1015 29.97 844 24.92 -6 21.3 95 -6.6 20.1
05:40 1015 29.97 844 24.92 -5.9 21.3 95 -6.6 20.2
05:45 1015 29.97 844 24.92 -5.9 21.4 95 -6.6 20.2
05:50 1015 29.97 844 24.92 -5.9 21.4 95 -6.5 20.2
05:55 1015 29.97 844 24.92 -5.9 21.4 95 -6.5 20.3
06:00 1015 29.97 844 24.92 -5.8 21.6 95 -6.5 20.4
06:05 1015 29.97 844 24.92 -5.8 21.6 95 -6.4 20.4
06:10 1015 29.97 844 24.92 -5.7 21.7 95 -6.4 20.4
06:15 1015 29.97 844 24.92 -5.8 21.6 95 -6.5 20.4
06:20 1015 29.97 844 24.92 -5.7 21.7 95 -6.4 20.4
06:25 1015 29.97 844 24.92 -5.7 21.7 94 -6.5 20.3
06:30 1015 29.97 844 24.92 -5.8 21.6 94 -6.5 20.3
06:35 1015 29.97 844 24.92 -5.7 21.7 94 -6.5 20.3
06:40 1015 29.97 844 24.92 -5.7 21.7 94 -6.5 20.3
06:45 1015 29.97 844 24.92 -5.7 21.8 94 -6.5 20.4
06:50 1015 29.97 845 24.95 -5.7 21.8 94 -6.5 20.4
06:55 1015 29.97 845 24.95 -5.7 21.8 94 -6.4 20.4
07:00 1015 29.97 845 24.95 -5.6 21.9 94 -6.4 20.4
07:05 1015 29.97 845 24.95 -5.6 22 94 -6.4 20.4
07:10 1015 29.97 845 24.95 -5.6 22 94 -6.4 20.5
07:15 1016 30 845 24.95 -5.5 22.1 94 -6.4 20.6
07:20 1016 30 845 24.95 -5.4 22.2 94 -6.3 20.6
07:25 1016 30 845 24.95 -5.5 22.1 94 -6.4 20.5
07:30 1016 30 845 24.95 -5.5 22.2 93 -6.4 20.5
07:35 1016 30 845 24.95 -5.4 22.2 93 -6.4 20.5
07:40 1016 30 845 24.95 -5.5 22.1 93 -6.5 20.4
07:45 1016 30 845 24.95 -5.7 21.8 94 -6.5 20.3
07:50 1016 30 845 24.95 -5.7 21.8 95 -6.4 20.5
07:55 1016 30 845 24.95 -5.6 22 94 -6.4 20.6
08:00 1016 30 845 24.95 -5.5 22.1 94 -6.3 20.6
08:05 1016 30 845 24.95 -5.5 22.1 94 -6.3 20.6
08:10 1016 30 845 24.95 -5.4 22.3 93 -6.3 20.6
08:15 1016 30 845 24.95 -5.3 22.5 92 -6.3 20.6
08:20 1016 30 845 24.95 -5.3 22.4 93 -6.3 20.7
08:25 1016 30 845 24.95 -5.2 22.6 92 -6.3 20.7
08:30 1016 30 845 24.95 -5.1 22.8 91 -6.3 20.6
08:35 1016 30 845 24.95 -5.1 22.9 91 -6.3 20.6
08:40 1016 30 845 24.95 -5 23.1 91 -6.3 20.7
08:45 1016 30 845 24.95 -4.9 23.2 90 -6.3 20.7
08:50 1016 30 846 24.98 -4.8 23.4 90 -6.2 20.8
08:55 1016 30 846 24.98 -4.6 23.7 88 -6.3 20.6
09:00 1016 30 846 24.98 -4.5 23.9 88 -6.2 20.8
09:05 1016 30 846 24.98 -4.4 24 87 -6.3 20.6
09:10 1017 30.03 846 24.98 -4.3 24.2 87 -6.2 20.8
09:15 1017 30.03 846 24.98 -4.1 24.6 85 -6.2 20.8
09:20 1017 30.03 846 24.98 -4.1 24.7 85 -6.2 20.9
09:25 1017 30.03 846 24.98 -3.9 25 83 -6.3 20.7
09:30 1017 30.03 846 24.98 -3.6 25.6 81 -6.3 20.6
09:35 1017 30.03 846 24.98 -3.3 26.1 81 -6.1 21
09:40 1017 30.03 846 24.98 -3.2 26.3 81 -6 21.2
09:45 1017 30.03 846 24.98 -3.2 26.2 82 -5.9 21.4
09:50 1017 30.03 846 24.98 -3.5 25.7 83 -5.9 21.4
09:55 1017 30.03 846 24.98 -3.7 25.3 84 -6 21.2
10:00 1017 30.03 846 24.98 -4 24.8 85 -6.2 20.9
10:05 1017 30.03 846 24.98 -4 24.7 84 -6.4 20.5
10:10 1017 30.03 846 24.98 -4 24.8 84 -6.3 20.6
10:15 1017 30.03 846 24.98 -3.9 25 84 -6.2 20.8
10:20 1017 30.03 846 24.98 -3.8 25.2 83 -6.3 20.7
10:25 1017 30.03 846 24.98 -3.9 25 83 -6.3 20.7
10:30 1017 30.03 846 24.98 -3.8 25.2 83 -6.2 20.8
10:35 1017 30.03 846 24.98 -3.6 25.5 82 -6.2 20.9
10:40 1017 30.03 846 24.98 -3.3 26 82 -6 21.2
10:45 1017 30.03 847 25.01 -3.1 26.4 81 -6 21.2
10:50 1017 30.03 847 25.01 -3 26.5 80 -5.9 21.3
10:55 1017 30.03 847 25.01 -2.9 26.8 81 -5.8 21.6
11:00 1017 30.03 847 25.01 -2.9 26.8 80 -6 21.3
11:05 1018 30.06 847 25.01 -3.2 26.3 80 -6.1 21.1
11:10 1018 30.06 847 25.01 -3.1 26.4 79 -6.2 20.8
11:15 1018 30.06 847 25.01 -2.9 26.8 77 -6.4 20.6
11:20 1018 30.06 847 25.01 -2.7 27.1 78 -6.1 21.1
11:25 1018 30.06 847 25.01 -2.8 27 78 -6.1 21
11:30 1018 30.06 847 25.01 -2.8 27 79 -6 21.3
11:35 1018 30.06 847 25.01 -2.9 26.7 80 -6 21.2
11:40 1018 30.06 847 25.01 -3.1 26.5 79 -6.2 20.9
11:45 1018 30.06 847 25.01 -3.3 26.1 81 -6 21.2
11:50 1018 30.06 847 25.01 -3.2 26.2 82 -5.9 21.3
11:55 1018 30.06 847 25.01 -3.2 26.2 81 -6 21.1
12:00 1018 30.06 847 25.01 -3.4 25.9 81 -6.2 20.8
12:05 1018 30.06 847 25.01 -3.4 25.8 82 -6.1 20.9
12:10 1018 30.06 847 25.01 -3.4 25.8 82 -6 21.1
12:15 1018 30.06 847 25.01 -3.5 25.7 82 -6.2 20.9
12:20 1018 30.06 847 25.01 -3.6 25.5 82 -6.2 20.9
12:25 1018 30.06 847 25.01 -3.6 25.5 82 -6.3 20.6
12:30 1018 30.06 847 25.01 -3.5 25.6 82 -6.2 20.8
12:35 1018 30.06 847 25.01 -3.6 25.5 83 -6.2 20.9
12:40 1018 30.06 847 25.01 -3.8 25.2 84 -6.1 21
12:45 1018 30.06 847 25.01 -3.7 25.4 84 -6 21.1
12:50 1018 30.06 847 25.01 -3.5 25.7 83 -6 21.2
12:55 1018 30.06 847 25.01 -3.6 25.6 83 -6 21.1
13:00 1018 30.06 847 25.01 -3.8 25.1 84 -6.1 21.1
13:05 1018 30.06 847 25.01 -3.7 25.3 84 -6.1 21.1
13:10 1018 30.06 847 25.01 -4 24.9 84 -6.3 20.7
13:15 1018 30.06 847 25.01 -4 24.7 84 -6.3 20.7
13:20 1018 30.06 847 25.01 -4 24.8 84 -6.3 20.7
13:25 1018 30.06 847 25.01 -4.1 24.7 85 -6.2 20.8
13:30 1018 30.06 847 25.01 -4.1 24.6 85 -6.2 20.8
13:35 1018 30.06 847 25.01 -4 24.7 85 -6.2 20.8
13:40 1018 30.06 847 25.01 -3.9 24.9 84 -6.3 20.6
13:45 1018 30.06 847 25.01 -3.8 25.2 83 -6.3 20.7
13:50 1018 30.06 847 25.01 -3.7 25.4 82 -6.3 20.7
13:55 1018 30.06 847 25.01 -3.7 25.4 82 -6.3 20.7
14:00 1018 30.06 847 25.01 -3.9 25 79 -6.9 19.5
14:05 1018 30.06 847 25.01 -4.2 24.4 77 -7.7 18.2
14:10 1018 30.06 847 25.01 -4.4 24.2 78 -7.6 18.4
14:15 1018 30.06 848 25.04 -4.4 24.1 80 -7.4 18.7
14:20 1018 30.06 848 25.04 -4.3 24.2 79 -7.4 18.7
14:25 1018 30.06 848 25.04 -4.3 24.2 78 -7.6 18.4
14:30 1019 30.09 848 25.04 -4.5 24 80 -7.4 18.6
14:35 1019 30.09 848 25.04 -4.3 24.2 78 -7.7 18.2
14:40 1019 30.09 848 25.04 -4.5 23.8 79 -7.6 18.3
14:45 1019 30.09 848 25.04 -4.7 23.5 77 -8.2 17.3
14:50 1019 30.09 848 25.04 -4.8 23.3 73 -8.9 16
14:55 1019 30.09 848 25.04 -5 23.1 74 -8.9 16
15:00 1019 30.09 848 25.04 -5 23.1 74 -9 15.9
15:05 1019 30.09 848 25.04 -5 23 72 -9.3 15.3
15:10 1019 30.09 848 25.04 -5 23 76 -8.7 16.4
15:15 1019 30.09 848 25.04 -4.9 23.2 77 -8.4 17
15:20 1019 30.09 848 25.04 -4.9 23.2 78 -8.1 17.4
15:25 1019 30.09 848 25.04 -4.9 23.2 80 -7.9 17.8
15:30 1019 30.09 848 25.04 -5 23 82 -7.6 18.3
15:35 1019 30.09 848 25.04 -5.2 22.6 83 -7.7 18.1
15:40 1019 30.09 849 25.07 -5.4 22.2 84 -7.7 18.2
15:45 1019 30.09 849 25.07 -5.5 22.2 84 -7.7 18.1
15:50 1019 30.09 849 25.07 -5.4 22.3 82 -8 17.7
15:55 1019 30.09 849 25.07 -5.3 22.4 83 -7.8 17.9
16:00 1019 30.09 849 25.07 -5.4 22.3 84 -7.7 18.2
16:05 1020 30.12 849 25.07 -5.5 22.2 84 -7.8 18
16:10 1020 30.12 849 25.07 -5.6 22 85 -7.7 18.1
16:15 1020 30.12 849 25.07 -5.6 21.9 86 -7.5 18.5
16:20 1020 30.12 849 25.07 -5.6 21.9 88 -7.3 18.8
16:25 1020 30.12 849 25.07 -5.7 21.8 88 -7.3 18.8
16:30 1020 30.12 849 25.07 -5.8 21.5 89 -7.3 18.8
16:35 1020 30.12 849 25.07 -6 21.2 89 -7.5 18.5
16:40 1020 30.12 849 25.07 -6.1 21 89 -7.7 18.2
16:45 1020 30.12 849 25.07 -6.2 20.9 90 -7.6 18.3
16:50 1020 30.12 849 25.07 -6.3 20.7 88 -7.9 17.7
16:55 1020 30.12 849 25.07 -6.5 20.4 88 -8.1 17.5
17:00 1020 30.12 849 25.07 -6.6 20.1 89 -8.2 17.3
17:05 1020 30.12 850 25.1 -6.7 19.9 89 -8.2 17.2
17:10 1020 30.12 850 25.1 -6.7 19.9 89 -8.2 17.2
17:15 1021 30.15 850 25.1 -6.8 19.8 88 -8.4 16.9
17:20 1021 30.15 850 25.1 -6.8 19.7 85 -8.9 15.9
17:25 1021 30.15 850 25.1 -7.2 19 87 -9.1 15.7
17:30 1021 30.15 850 25.1 -7.4 18.7 84 -9.7 14.5
17:35 1021 30.15 850 25.1 -7.5 18.4 84 -9.9 14.3
17:40 1021 30.15 850 25.1 -7.7 18.2 85 -9.8 14.3
17:45 1021 30.15 850 25.1 -7.8 18 84 -10 14.1
17:50 1021 30.15 850 25.1 -7.8 17.9 84 -10 14
17:55 1021 30.15 850 25.1 -8 17.7 84 -10.3 13.5
18:00 1021 30.15 850 25.1 -8.2 17.3 84 -10.4 13.4
18:05 1021 30.15 850 25.1 -8.3 17.1 82 -10.8 12.5
18:10 1021 30.15 850 25.1 -8.5 16.7 83 -10.8 12.5
18:15 1021 30.15 851 25.13 -8.6 16.6 88 -10.3 13.5
18:20 1021 30.15 851 25.13 -8.8 16.3 88 -10.4 13.3
18:25 1021 30.15 851 25.13 -8.7 16.3 87 -10.5 13.1
18:30 1021 30.15 851 25.13 -8.9 16.1 87 -10.6 12.8
18:35 1021 30.15 851 25.13 -9 15.8 87 -10.7 12.7
18:40 1021 30.15 851 25.13 -9 15.8 86 -10.9 12.3
18:45 1021 30.15 851 25.13 -9 15.9 85 -11 12.2
18:50 1021 30.15 851 25.13 -8.9 16 85 -11 12.1
18:55 1022 30.18 851 25.13 -8.9 16 86 -10.9 12.5
19:00 1022 30.18 851 25.13 -8.8 16.1 85 -11 12.3
19:05 1022 30.18 851 25.13 -8.8 16.2 86 -10.7 12.8
19:10 1022 30.18 851 25.13 -8.7 16.3 84 -10.9 12.4
19:15 1022 30.18 851 25.13 -8.9 16 84 -11.1 12
19:20 1022 30.18 851 25.13 -8.9 16.1 84 -11.1 12
19:25 1022 30.18 851 25.13 -8.8 16.1 84 -11.1 11.9
19:30 1022 30.18 851 25.13 -8.9 15.9 85 -11 12.2
19:35 1022 30.18 851 25.13 -8.9 16 85 -10.9 12.3
19:40 1022 30.18 851 25.13 -8.8 16.2 85 -10.8 12.5
19:45 1022 30.18 851 25.13 -9 15.8 86 -10.9 12.4
19:50 1022 30.18 851 25.13 -9.3 15.3 87 -11.1 12.1
19:55 1022 30.18 851 25.13 -9.3 15.2 87 -11.1 12.1
20:00 1022 30.18 851 25.13 -9.3 15.3 87 -11.1 12.1
20:05 1022 30.18 851 25.13 -9.4 15.1 86 -11.3 11.7
20:10 1022 30.18 851 25.13 -9.4 15.2 86 -11.4 11.6
20:15 1022 30.18 851 25.13 -9.5 15 87 -11.3 11.7
20:20 1022 30.18 851 25.13 -9.5 14.9 86 -11.5 11.4
20:25 1022 30.18 851 25.13 -9.5 14.8 85 -11.6 11.2
20:30 1022 30.18 851 25.13 -9.6 14.7 81 -12.3 9.9
20:35 1022 30.18 851 25.13 -9.8 14.4 81 -12.4 9.7
20:40 1022 30.18 851 25.13 -9.9 14.2 79 -12.9 8.8
20:45 1022 30.18 851 25.13 -9.9 14.2 78 -13.1 8.4
20:50 1022 30.18 851 25.13 -10 14 78 -13.2 8.3
20:55 1022 30.18 851 25.13 -10 13.9 78 -13.1 8.4
21:00 1022 30.18 851 25.13 -10.1 13.8 76 -13.5 7.7
21:05 1022 30.18 851 25.13 -10.1 13.8 71 -14.5 6
21:10 1022 30.18 851 25.13 -10.1 13.8 71 -14.5 6
21:15 1022 30.18 851 25.13 -10.1 13.8 71 -14.4 6.1
21:20 1022 30.18 851 25.13 -10.1 13.8 69 -14.7 5.5
21:25 1022 30.18 851 25.13 -10.1 13.7 69 -14.8 5.4
21:30 1022 30.18 851 25.13 -10.2 13.7 71 -14.5 5.9
21:35 1022 30.18 851 25.13 -10.2 13.7 73 -14.2 6.5
21:40 1022 30.18 851 25.13 -10 14 70 -14.5 5.8
21:45 1022 30.18 851 25.13 -10 14 69 -14.7 5.5
21:50 1022 30.18 852 25.16 -10.1 13.7 70 -14.7 5.6
21:55 1022 30.18 852 25.16 -10.2 13.6 71 -14.5 5.8
22:00 1022 30.18 852 25.16 -10.1 13.7 72 -14.3 6.3
22:05 1022 30.18 852 25.16 -10.2 13.6 75 -13.9 7
22:10 1023 30.21 852 25.16 -10.3 13.4 75 -14 6.9
22:15 1023 30.21 852 25.16 -10.4 13.4 76 -13.9 7
22:20 1023 30.21 852 25.16 -10.5 13.2 81 -13.2 8.3
22:25 1023 30.21 852 25.16 -10.6 12.9 82 -13.2 8.3
22:30 1023 30.21 852 25.16 -10.7 12.7 83 -13.1 8.4
22:35 1023 30.21 852 25.16 -10.7 12.7 82 -13.2 8.3
22:40 1023 30.21 852 25.16 -10.8 12.6 84 -12.9 8.7
22:45 1023 30.21 852 25.16 -10.7 12.7 82 -13.2 8.2
22:50 1023 30.21 852 25.16 -10.8 12.5 83 -13.3 8.1
22:55 1023 30.21 852 25.16 -10.9 12.3 83 -13.2 8.2
23:00 1023 30.21 852 25.16 -11 12.2 83 -13.3 8.1
23:05 1023 30.21 852 25.16 -11 12.2 82 -13.5 7.7
23:10 1023 30.21 852 25.16 -11 12.2 81 -13.7 7.3
23:15 1022 30.18 852 25.16 -11 12.1 82 -13.5 7.7
23:20 1022 30.18 852 25.16 -11.1 12 82 -13.6 7.6
23:25 1022 30.18 852 25.16 -11.2 11.9 83 -13.5 7.7
23:30 1022 30.18 852 25.16 -11.1 12 83 -13.4 7.9
23:35 1022 30.18 852 25.16 -11 12.1 83 -13.4 7.9
23:40 1022 30.18 852 25.16 -11.1 12 84 -13.3 8
23:45 1022 30.18 852 25.16 -11.2 11.9 85 -13.2 8.2
23:50 1022 30.18 851 25.13 -11.1 12 85 -13.1 8.4
23:55 1022 30.18 851 25.13 -11 12.2 84 -13.2 8.3
24:00 1022 30.18 851 25.13 -11.1 12.1 83 -13.3 8